sensor_id;sensor_type;location;lat;lon;timestamp;temperature;humidity
8711;DHT22;4392;47.400;8.062;2023-01-16T00:01:12;5.70;96.80
8711;DHT22;4392;47.400;8.062;2023-01-16T00:03:39;5.70;97.20
8711;DHT22;4392;47.400;8.062;2023-01-16T00:06:07;5.80;96.90
8711;DHT22;4392;47.400;8.062;2023-01-16T00:08:33;5.80;96.60
8711;DHT22;4392;47.400;8.062;2023-01-16T00:10:58;6.00;98.30
8711;DHT22;4392;47.400;8.062;2023-01-16T00:13:24;6.00;96.40
8711;DHT22;4392;47.400;8.062;2023-01-16T00:15:52;5.80;96.30
8711;DHT22;4392;47.400;8.062;2023-01-16T00:18:18;5.80;96.70
8711;DHT22;4392;47.400;8.062;2023-01-16T00:20:46;5.70;96.60
8711;DHT22;4392;47.400;8.062;2023-01-16T00:23:13;5.40;97.40
8711;DHT22;4392;47.400;8.062;2023-01-16T00:25:42;5.20;98.50
8711;DHT22;4392;47.400;8.062;2023-01-16T00:28:09;5.30;98.30
8711;DHT22;4392;47.400;8.062;2023-01-16T00:30:35;5.30;98.50
8711;DHT22;4392;47.400;8.062;2023-01-16T00:33:05;5.70;99.90
8711;DHT22;4392;47.400;8.062;2023-01-16T00:35:32;6.30;99.90
8711;DHT22;4392;47.400;8.062;2023-01-16T00:37:58;6.00;99.40
8711;DHT22;4392;47.400;8.062;2023-01-16T00:40:24;5.80;98.70
8711;DHT22;4392;47.400;8.062;2023-01-16T00:42:50;5.70;98.80
8711;DHT22;4392;47.400;8.062;2023-01-16T00:45:16;5.60;99.00
8711;DHT22;4392;47.400;8.062;2023-01-16T00:47:42;5.50;99.60
8711;DHT22;4392;47.400;8.062;2023-01-16T00:50:08;5.50;99.90
8711;DHT22;4392;47.400;8.062;2023-01-16T00:52:34;5.50;99.90
8711;DHT22;4392;47.400;8.062;2023-01-16T00:55:00;5.50;99.90
8711;DHT22;4392;47.400;8.062;2023-01-16T00:57:25;5.50;99.60
8711;DHT22;4392;47.400;8.062;2023-01-16T00:59:51;5.50;99.90
8711;DHT22;4392;47.400;8.062;2023-01-16T01:02:18;5.50;99.90
8711;DHT22;4392;47.400;8.062;2023-01-16T01:04:44;5.40;99.80
8711;DHT22;4392;47.400;8.062;2023-01-16T01:07:09;5.50;99.50
8711;DHT22;4392;47.400;8.062;2023-01-16T01:09:35;5.40;99.40
8711;DHT22;4392;47.400;8.062;2023-01-16T01:12:01;5.40;99.90
8711;DHT22;4392;47.400;8.062;2023-01-16T01:14:29;5.40;99.40
8711;DHT22;4392;47.400;8.062;2023-01-16T01:16:55;5.40;99.20
8711;DHT22;4392;47.400;8.062;2023-01-16T01:19:20;5.30;99.30
8711;DHT22;4392;47.400;8.062;2023-01-16T01:21:46;5.30;99.90
8711;DHT22;4392;47.400;8.062;2023-01-16T01:24:12;5.40;99.90
8711;DHT22;4392;47.400;8.062;2023-01-16T01:26:38;5.40;99.90
8711;DHT22;4392;47.400;8.062;2023-01-16T01:29:04;5.40;99.90
8711;DHT22;4392;47.400;8.062;2023-01-16T01:31:30;5.40;99.80
8711;DHT22;4392;47.400;8.062;2023-01-16T01:33:56;5.40;99.80
8711;DHT22;4392;47.400;8.062;2023-01-16T01:36:21;5.40;99.90
8711;DHT22;4392;47.400;8.062;2023-01-16T01:38:47;6.00;99.90
8711;DHT22;4392;47.400;8.062;2023-01-16T01:41:14;5.90;99.90
8711;DHT22;4392;47.400;8.062;2023-01-16T01:43:49;5.80;99.90
8711;DHT22;4392;47.400;8.062;2023-01-16T01:46:30;5.70;99.90
8711;DHT22;4392;47.400;8.062;2023-01-16T01:49:24;5.70;99.90
8711;DHT22;4392;47.400;8.062;2023-01-16T01:51:53;5.70;99.90
8711;DHT22;4392;47.400;8.062;2023-01-16T01:54:27;5.60;99.90
8711;DHT22;4392;47.400;8.062;2023-01-16T01:57:11;5.60;99.90
8711;DHT22;4392;47.400;8.062;2023-01-16T01:59:45;5.50;99.90
8711;DHT22;4392;47.400;8.062;2023-01-16T02:02:14;5.50;99.90
8711;DHT22;4392;47.400;8.062;2023-01-16T02:04:46;6.10;99.90
8711;DHT22;4392;47.400;8.062;2023-01-16T02:07:16;7.70;99.90
8711;DHT22;4392;47.400;8.062;2023-01-16T02:09:43;7.10;98.40
8711;DHT22;4392;47.400;8.062;2023-01-16T02:12:09;6.80;98.60
8711;DHT22;4392;47.400;8.062;2023-01-16T02:14:40;6.20;99.90
8711;DHT22;4392;47.400;8.062;2023-01-16T02:17:16;6.10;99.60
8711;DHT22;4392;47.400;8.062;2023-01-16T02:23:18;6.20;99.90
8711;DHT22;4392;47.400;8.062;2023-01-16T02:31:40;6.80;99.90
8711;DHT22;4392;47.400;8.062;2023-01-16T02:45:22;6.10;97.10
8711;DHT22;4392;47.400;8.062;2023-01-16T02:48:05;6.30;98.60
8711;DHT22;4392;47.400;8.062;2023-01-16T02:53:32;6.30;97.40
8711;DHT22;4392;47.400;8.062;2023-01-16T02:56:09;8.10;97.60
8711;DHT22;4392;47.400;8.062;2023-01-16T02:58:42;6.90;94.50
8711;DHT22;4392;47.400;8.062;2023-01-16T03:01:09;6.20;96.10
8711;DHT22;4392;47.400;8.062;2023-01-16T03:11:31;5.50;98.00
8711;DHT22;4392;47.400;8.062;2023-01-16T03:14:44;5.40;98.70
8711;DHT22;4392;47.400;8.062;2023-01-16T03:17:17;5.40;99.80
8711;DHT22;4392;47.400;8.062;2023-01-16T03:20:10;5.40;99.80
8711;DHT22;4392;47.400;8.062;2023-01-16T03:22:41;5.30;99.90
8711;DHT22;4392;47.400;8.062;2023-01-16T03:28:09;5.20;99.90
8711;DHT22;4392;47.400;8.062;2023-01-16T03:33:41;5.10;99.90
8711;DHT22;4392;47.400;8.062;2023-01-16T03:36:20;5.10;99.90
8711;DHT22;4392;47.400;8.062;2023-01-16T03:38:50;5.10;99.90
8711;DHT22;4392;47.400;8.062;2023-01-16T03:41:19;5.10;99.90
8711;DHT22;4392;47.400;8.062;2023-01-16T03:43:50;5.00;99.90
8711;DHT22;4392;47.400;8.062;2023-01-16T03:46:25;5.00;99.90
8711;DHT22;4392;47.400;8.062;2023-01-16T03:51:36;6.30;99.90
8711;DHT22;4392;47.400;8.062;2023-01-16T03:59:26;5.30;99.90
8711;DHT22;4392;47.400;8.062;2023-01-16T04:04:30;5.20;99.90
8711;DHT22;4392;47.400;8.062;2023-01-16T04:07:10;6.50;99.90
8711;DHT22;4392;47.400;8.062;2023-01-16T04:09:53;5.90;98.40
8711;DHT22;4392;47.400;8.062;2023-01-16T04:12:32;5.50;99.80
8711;DHT22;4392;47.400;8.062;2023-01-16T04:15:01;5.30;99.90
8711;DHT22;4392;47.400;8.062;2023-01-16T04:17:29;5.20;99.90
8711;DHT22;4392;47.400;8.062;2023-01-16T04:19:55;5.20;99.90
8711;DHT22;4392;47.400;8.062;2023-01-16T04:22:26;5.10;99.90
8711;DHT22;4392;47.400;8.062;2023-01-16T04:24:54;5.20;99.90
8711;DHT22;4392;47.400;8.062;2023-01-16T04:27:21;5.10;99.90
8711;DHT22;4392;47.400;8.062;2023-01-16T04:29:47;5.00;99.90
8711;DHT22;4392;47.400;8.062;2023-01-16T04:32:13;5.10;99.90
8711;DHT22;4392;47.400;8.062;2023-01-16T04:34:39;5.90;99.90
8711;DHT22;4392;47.400;8.062;2023-01-16T04:37:05;5.90;99.90
8711;DHT22;4392;47.400;8.062;2023-01-16T04:39:31;5.60;99.90
8711;DHT22;4392;47.400;8.062;2023-01-16T04:41:56;5.40;99.90
8711;DHT22;4392;47.400;8.062;2023-01-16T04:44:24;5.20;99.90
8711;DHT22;4392;47.400;8.062;2023-01-16T04:46:50;5.10;99.90
8711;DHT22;4392;47.400;8.062;2023-01-16T04:49:15;5.10;99.90
8711;DHT22;4392;47.400;8.062;2023-01-16T04:51:42;5.10;99.90
8711;DHT22;4392;47.400;8.062;2023-01-16T04:54:14;5.30;99.90
8711;DHT22;4392;47.400;8.062;2023-01-16T04:56:41;5.40;99.90
8711;DHT22;4392;47.400;8.062;2023-01-16T04:59:09;5.50;99.90
8711;DHT22;4392;47.400;8.062;2023-01-16T05:01:35;5.50;99.90
8711;DHT22;4392;47.400;8.062;2023-01-16T05:04:06;5.40;99.90
8711;DHT22;4392;47.400;8.062;2023-01-16T05:06:33;5.40;99.90
8711;DHT22;4392;47.400;8.062;2023-01-16T05:08:59;7.00;99.90
8711;DHT22;4392;47.400;8.062;2023-01-16T05:11:25;6.10;98.30
8711;DHT22;4392;47.400;8.062;2023-01-16T05:13:51;5.60;99.90
8711;DHT22;4392;47.400;8.062;2023-01-16T05:16:17;5.30;99.50
8711;DHT22;4392;47.400;8.062;2023-01-16T05:18:42;5.10;99.90
8711;DHT22;4392;47.400;8.062;2023-01-16T05:21:11;5.00;99.90
8711;DHT22;4392;47.400;8.062;2023-01-16T05:23:36;4.90;99.90
8711;DHT22;4392;47.400;8.062;2023-01-16T05:26:03;4.90;99.90
8711;DHT22;4392;47.400;8.062;2023-01-16T05:28:29;4.80;99.90
8711;DHT22;4392;47.400;8.062;2023-01-16T05:30:56;5.80;99.90
8711;DHT22;4392;47.400;8.062;2023-01-16T05:33:22;5.40;99.90
8711;DHT22;4392;47.400;8.062;2023-01-16T05:35:47;5.10;99.90
8711;DHT22;4392;47.400;8.062;2023-01-16T05:38:14;5.00;99.90
8711;DHT22;4392;47.400;8.062;2023-01-16T05:40:40;4.90;99.90
8711;DHT22;4392;47.400;8.062;2023-01-16T05:43:08;4.80;99.90
8711;DHT22;4392;47.400;8.062;2023-01-16T05:45:34;4.80;99.90
8711;DHT22;4392;47.400;8.062;2023-01-16T05:48:01;4.80;99.90
8711;DHT22;4392;47.400;8.062;2023-01-16T05:50:27;4.70;99.90
8711;DHT22;4392;47.400;8.062;2023-01-16T05:52:53;4.70;99.90
8711;DHT22;4392;47.400;8.062;2023-01-16T05:55:21;4.70;99.90
8711;DHT22;4392;47.400;8.062;2023-01-16T05:57:49;4.70;99.90
8711;DHT22;4392;47.400;8.062;2023-01-16T06:00:16;4.60;99.90
8711;DHT22;4392;47.400;8.062;2023-01-16T06:02:42;4.60;99.90
8711;DHT22;4392;47.400;8.062;2023-01-16T06:05:08;4.50;99.90
8711;DHT22;4392;47.400;8.062;2023-01-16T06:07:34;4.50;99.90
8711;DHT22;4392;47.400;8.062;2023-01-16T06:09:59;4.50;99.90
8711;DHT22;4392;47.400;8.062;2023-01-16T06:12:25;4.50;99.90
8711;DHT22;4392;47.400;8.062;2023-01-16T06:14:51;4.60;99.90
8711;DHT22;4392;47.400;8.062;2023-01-16T06:17:16;4.60;99.90
8711;DHT22;4392;47.400;8.062;2023-01-16T06:19:44;4.60;99.90
8711;DHT22;4392;47.400;8.062;2023-01-16T06:22:12;4.50;99.90
8711;DHT22;4392;47.400;8.062;2023-01-16T06:24:38;4.60;99.90
8711;DHT22;4392;47.400;8.062;2023-01-16T06:27:04;4.60;99.90
8711;DHT22;4392;47.400;8.062;2023-01-16T06:29:30;4.60;99.90
8711;DHT22;4392;47.400;8.062;2023-01-16T06:31:56;4.80;99.90
8711;DHT22;4392;47.400;8.062;2023-01-16T06:34:22;4.80;99.90
8711;DHT22;4392;47.400;8.062;2023-01-16T06:36:48;4.50;99.90
8711;DHT22;4392;47.400;8.062;2023-01-16T06:39:14;4.60;99.90
8711;DHT22;4392;47.400;8.062;2023-01-16T06:41:43;4.60;99.90
8711;DHT22;4392;47.400;8.062;2023-01-16T06:44:09;4.60;99.90
8711;DHT22;4392;47.400;8.062;2023-01-16T06:46:34;4.50;99.90
8711;DHT22;4392;47.400;8.062;2023-01-16T06:49:00;4.50;99.90
8711;DHT22;4392;47.400;8.062;2023-01-16T06:51:26;4.60;99.90
8711;DHT22;4392;47.400;8.062;2023-01-16T06:53:54;4.60;99.90
8711;DHT22;4392;47.400;8.062;2023-01-16T06:56:19;4.60;99.90
8711;DHT22;4392;47.400;8.062;2023-01-16T06:58:45;4.60;99.90
8711;DHT22;4392;47.400;8.062;2023-01-16T07:01:11;4.60;99.90
8711;DHT22;4392;47.400;8.062;2023-01-16T07:03:39;4.60;99.90
8711;DHT22;4392;47.400;8.062;2023-01-16T07:06:05;4.70;99.90
8711;DHT22;4392;47.400;8.062;2023-01-16T07:08:30;6.20;99.90
8711;DHT22;4392;47.400;8.062;2023-01-16T07:11:00;6.50;99.90
8711;DHT22;4392;47.400;8.062;2023-01-16T07:13:26;6.50;99.90
8711;DHT22;4392;47.400;8.062;2023-01-16T07:15:54;6.00;99.90
8711;DHT22;4392;47.400;8.062;2023-01-16T07:18:49;5.70;99.90
8711;DHT22;4392;47.400;8.062;2023-01-16T07:21:34;5.50;99.90
8711;DHT22;4392;47.400;8.062;2023-01-16T07:24:22;5.30;99.90
8711;DHT22;4392;47.400;8.062;2023-01-16T07:26:52;5.10;99.90
8711;DHT22;4392;47.400;8.062;2023-01-16T07:29:20;5.20;99.90
8711;DHT22;4392;47.400;8.062;2023-01-16T07:31:46;5.20;99.90
8711;DHT22;4392;47.400;8.062;2023-01-16T07:34:14;5.20;99.90
8711;DHT22;4392;47.400;8.062;2023-01-16T07:36:40;5.20;99.90
8711;DHT22;4392;47.400;8.062;2023-01-16T07:39:05;5.20;99.90
8711;DHT22;4392;47.400;8.062;2023-01-16T07:41:31;5.10;99.90
8711;DHT22;4392;47.400;8.062;2023-01-16T07:43:57;5.60;99.90
8711;DHT22;4392;47.400;8.062;2023-01-16T07:46:22;6.50;99.90
8711;DHT22;4392;47.400;8.062;2023-01-16T07:48:48;5.90;99.90
8711;DHT22;4392;47.400;8.062;2023-01-16T07:51:16;5.40;99.90
8711;DHT22;4392;47.400;8.062;2023-01-16T07:53:42;5.30;99.90
8711;DHT22;4392;47.400;8.062;2023-01-16T07:56:08;5.10;99.90
8711;DHT22;4392;47.400;8.062;2023-01-16T07:58:34;5.10;99.90
8711;DHT22;4392;47.400;8.062;2023-01-16T08:01:02;5.00;99.90
8711;DHT22;4392;47.400;8.062;2023-01-16T08:03:28;5.00;99.90
8711;DHT22;4392;47.400;8.062;2023-01-16T08:05:55;6.80;99.90
8711;DHT22;4392;47.400;8.062;2023-01-16T08:08:26;6.40;99.90
8711;DHT22;4392;47.400;8.062;2023-01-16T08:10:59;5.80;99.90
8711;DHT22;4392;47.400;8.062;2023-01-16T08:13:25;5.50;99.90
8711;DHT22;4392;47.400;8.062;2023-01-16T08:15:52;5.20;99.90
8711;DHT22;4392;47.400;8.062;2023-01-16T08:18:18;5.20;99.90
8711;DHT22;4392;47.400;8.062;2023-01-16T08:20:45;5.20;99.90
8711;DHT22;4392;47.400;8.062;2023-01-16T08:23:11;5.30;99.90
8711;DHT22;4392;47.400;8.062;2023-01-16T08:25:37;5.30;99.90
8711;DHT22;4392;47.400;8.062;2023-01-16T08:28:04;5.30;99.90
8711;DHT22;4392;47.400;8.062;2023-01-16T08:30:29;6.30;99.90
8711;DHT22;4392;47.400;8.062;2023-01-16T08:32:59;6.20;99.90
8711;DHT22;4392;47.400;8.062;2023-01-16T08:35:25;5.90;99.90
8711;DHT22;4392;47.400;8.062;2023-01-16T08:37:51;5.70;99.90
8711;DHT22;4392;47.400;8.062;2023-01-16T08:40:18;7.00;99.90
8711;DHT22;4392;47.400;8.062;2023-01-16T08:42:44;6.40;99.60
8711;DHT22;4392;47.400;8.062;2023-01-16T08:45:28;5.80;98.70
8711;DHT22;4392;47.400;8.062;2023-01-16T08:48:17;5.50;98.90
8711;DHT22;4392;47.400;8.062;2023-01-16T08:51:03;5.40;99.90
8711;DHT22;4392;47.400;8.062;2023-01-16T08:53:52;5.30;99.90
8711;DHT22;4392;47.400;8.062;2023-01-16T08:56:19;5.40;99.90
8711;DHT22;4392;47.400;8.062;2023-01-16T08:58:45;6.00;99.90
8711;DHT22;4392;47.400;8.062;2023-01-16T09:01:11;8.00;99.90
8711;DHT22;4392;47.400;8.062;2023-01-16T09:03:37;8.40;95.30
8711;DHT22;4392;47.400;8.062;2023-01-16T09:06:05;7.30;95.30
8711;DHT22;4392;47.400;8.062;2023-01-16T09:08:31;6.50;97.10
8711;DHT22;4392;47.400;8.062;2023-01-16T09:10:57;6.10;98.20
8711;DHT22;4392;47.400;8.062;2023-01-16T09:13:41;5.90;99.50
8711;DHT22;4392;47.400;8.062;2023-01-16T09:16:17;5.60;99.30
8711;DHT22;4392;47.400;8.062;2023-01-16T09:18:43;5.50;99.70
8711;DHT22;4392;47.400;8.062;2023-01-16T09:21:09;5.40;99.10
8711;DHT22;4392;47.400;8.062;2023-01-16T09:23:37;5.30;99.90
8711;DHT22;4392;47.400;8.062;2023-01-16T09:26:03;5.30;99.90
8711;DHT22;4392;47.400;8.062;2023-01-16T09:28:28;5.30;99.90
8711;DHT22;4392;47.400;8.062;2023-01-16T09:30:54;5.30;99.90
8711;DHT22;4392;47.400;8.062;2023-01-16T09:33:20;5.30;99.90
8711;DHT22;4392;47.400;8.062;2023-01-16T09:35:45;5.10;99.90
8711;DHT22;4392;47.400;8.062;2023-01-16T09:38:11;5.00;99.90
8711;DHT22;4392;47.400;8.062;2023-01-16T09:40:37;4.90;99.90
8711;DHT22;4392;47.400;8.062;2023-01-16T09:45:48;5.10;99.90
8711;DHT22;4392;47.400;8.062;2023-01-16T09:48:23;5.10;99.90
8711;DHT22;4392;47.400;8.062;2023-01-16T09:50:56;5.20;99.90
8711;DHT22;4392;47.400;8.062;2023-01-16T09:54:09;5.10;99.90
8711;DHT22;4392;47.400;8.062;2023-01-16T09:56:54;5.20;99.90
8711;DHT22;4392;47.400;8.062;2023-01-16T09:59:45;5.20;99.90
8711;DHT22;4392;47.400;8.062;2023-01-16T10:02:17;5.30;99.90
8711;DHT22;4392;47.400;8.062;2023-01-16T10:04:45;5.10;99.90
8711;DHT22;4392;47.400;8.062;2023-01-16T10:21:31;5.30;99.90
8711;DHT22;4392;47.400;8.062;2023-01-16T10:24:14;5.20;99.90
8711;DHT22;4392;47.400;8.062;2023-01-16T10:27:00;5.30;99.90
8711;DHT22;4392;47.400;8.062;2023-01-16T10:29:44;5.40;99.90
8711;DHT22;4392;47.400;8.062;2023-01-16T10:32:30;5.40;99.90
8711;DHT22;4392;47.400;8.062;2023-01-16T10:35:17;5.50;99.90
8711;DHT22;4392;47.400;8.062;2023-01-16T10:37:46;5.70;99.90
8711;DHT22;4392;47.400;8.062;2023-01-16T10:40:14;5.70;99.90
8711;DHT22;4392;47.400;8.062;2023-01-16T10:42:41;5.70;99.90
8711;DHT22;4392;47.400;8.062;2023-01-16T10:45:30;5.70;99.90
8711;DHT22;4392;47.400;8.062;2023-01-16T10:48:16;5.70;99.90
8711;DHT22;4392;47.400;8.062;2023-01-16T10:51:01;6.60;99.90
8711;DHT22;4392;47.400;8.062;2023-01-16T10:53:28;6.30;99.90
8711;DHT22;4392;47.400;8.062;2023-01-16T10:55:55;6.10;99.90
8711;DHT22;4392;47.400;8.062;2023-01-16T10:58:30;6.00;99.90
8711;DHT22;4392;47.400;8.062;2023-01-16T11:01:02;6.00;99.90
8711;DHT22;4392;47.400;8.062;2023-01-16T11:03:39;6.80;99.90
8711;DHT22;4392;47.400;8.062;2023-01-16T11:06:19;6.60;99.90
8711;DHT22;4392;47.400;8.062;2023-01-16T11:08:52;6.20;99.90
8711;DHT22;4392;47.400;8.062;2023-01-16T11:11:19;6.00;99.90
8711;DHT22;4392;47.400;8.062;2023-01-16T11:14:28;5.90;99.90
8711;DHT22;4392;47.400;8.062;2023-01-16T11:17:26;5.70;99.90
8711;DHT22;4392;47.400;8.062;2023-01-16T11:20:18;5.70;99.90
8711;DHT22;4392;47.400;8.062;2023-01-16T11:22:48;5.70;99.90
8711;DHT22;4392;47.400;8.062;2023-01-16T11:25:17;5.70;99.90
8711;DHT22;4392;47.400;8.062;2023-01-16T11:27:45;5.70;99.90
8711;DHT22;4392;47.400;8.062;2023-01-16T11:30:18;5.60;99.90
8711;DHT22;4392;47.400;8.062;2023-01-16T11:32:45;5.40;99.90
8711;DHT22;4392;47.400;8.062;2023-01-16T11:35:15;5.50;99.90
8711;DHT22;4392;47.400;8.062;2023-01-16T11:37:44;5.50;99.90
8711;DHT22;4392;47.400;8.062;2023-01-16T11:40:24;5.60;99.90
8711;DHT22;4392;47.400;8.062;2023-01-16T11:42:56;5.60;99.90
8711;DHT22;4392;47.400;8.062;2023-01-16T11:45:45;5.70;99.90
8711;DHT22;4392;47.400;8.062;2023-01-16T11:49:55;5.60;99.90
8711;DHT22;4392;47.400;8.062;2023-01-16T11:51:53;5.60;99.90
8711;DHT22;4392;47.400;8.062;2023-01-16T11:54:25;5.70;99.90
8711;DHT22;4392;47.400;8.062;2023-01-16T12:11:41;5.80;99.90
8711;DHT22;4392;47.400;8.062;2023-01-16T12:25:32;5.70;99.90
8711;DHT22;4392;47.400;8.062;2023-01-16T12:31:09;5.80;99.90
8711;DHT22;4392;47.400;8.062;2023-01-16T12:45:52;5.90;99.90
8711;DHT22;4392;47.400;8.062;2023-01-16T12:59:47;5.90;99.90
8711;DHT22;4392;47.400;8.062;2023-01-16T13:02:36;6.00;99.90
8711;DHT22;4392;47.400;8.062;2023-01-16T13:05:11;6.10;99.90
8711;DHT22;4392;47.400;8.062;2023-01-16T13:08:17;6.10;99.90
8711;DHT22;4392;47.400;8.062;2023-01-16T13:10:50;6.20;99.90
8711;DHT22;4392;47.400;8.062;2023-01-16T13:13:40;6.20;99.90
8711;DHT22;4392;47.400;8.062;2023-01-16T13:18:54;6.20;99.90
8711;DHT22;4392;47.400;8.062;2023-01-16T13:21:26;6.20;99.90
8711;DHT22;4392;47.400;8.062;2023-01-16T13:24:23;6.20;99.90
8711;DHT22;4392;47.400;8.062;2023-01-16T13:27:00;6.10;99.90
8711;DHT22;4392;47.400;8.062;2023-01-16T13:29:41;6.20;99.90
8711;DHT22;4392;47.400;8.062;2023-01-16T13:35:26;6.20;99.90
8711;DHT22;4392;47.400;8.062;2023-01-16T13:38:20;6.20;99.90
8711;DHT22;4392;47.400;8.062;2023-01-16T13:44:06;6.30;99.90
8711;DHT22;4392;47.400;8.062;2023-01-16T13:47:04;6.40;99.90
8711;DHT22;4392;47.400;8.062;2023-01-16T13:49:31;6.50;99.90
8711;DHT22;4392;47.400;8.062;2023-01-16T13:52:00;6.60;99.90
8711;DHT22;4392;47.400;8.062;2023-01-16T13:54:36;6.70;99.90
8711;DHT22;4392;47.400;8.062;2023-01-16T13:57:08;6.80;99.90
8711;DHT22;4392;47.400;8.062;2023-01-16T13:59:39;6.80;99.90
8711;DHT22;4392;47.400;8.062;2023-01-16T14:02:38;6.90;99.90
8711;DHT22;4392;47.400;8.062;2023-01-16T14:10:44;6.70;99.90
8711;DHT22;4392;47.400;8.062;2023-01-16T14:15:51;6.70;99.90
8711;DHT22;4392;47.400;8.062;2023-01-16T14:21:23;6.60;99.90
8711;DHT22;4392;47.400;8.062;2023-01-16T14:23:54;6.60;99.90
8711;DHT22;4392;47.400;8.062;2023-01-16T14:29:16;6.60;99.90
8711;DHT22;4392;47.400;8.062;2023-01-16T14:31:55;6.60;99.90
8711;DHT22;4392;47.400;8.062;2023-01-16T14:34:48;6.60;99.90
8711;DHT22;4392;47.400;8.062;2023-01-16T14:37:27;6.10;99.90
8711;DHT22;4392;47.400;8.062;2023-01-16T14:42:45;5.90;99.90
8711;DHT22;4392;47.400;8.062;2023-01-16T14:45:32;5.60;99.90
8711;DHT22;4392;47.400;8.062;2023-01-16T14:57:14;5.90;99.90
8711;DHT22;4392;47.400;8.062;2023-01-16T15:02:37;5.90;99.90
8711;DHT22;4392;47.400;8.062;2023-01-16T15:10:38;6.10;99.90
8711;DHT22;4392;47.400;8.062;2023-01-16T15:16:03;6.10;99.90
8711;DHT22;4392;47.400;8.062;2023-01-16T15:18:30;6.10;99.90
8711;DHT22;4392;47.400;8.062;2023-01-16T15:21:19;6.20;99.90
8711;DHT22;4392;47.400;8.062;2023-01-16T15:24:05;6.20;99.90
8711;DHT22;4392;47.400;8.062;2023-01-16T15:27:09;6.10;99.90
8711;DHT22;4392;47.400;8.062;2023-01-16T15:32:13;6.20;99.90
8711;DHT22;4392;47.400;8.062;2023-01-16T15:34:46;6.10;99.90
8711;DHT22;4392;47.400;8.062;2023-01-16T15:37:23;6.10;99.90
8711;DHT22;4392;47.400;8.062;2023-01-16T15:39:52;6.20;99.90
8711;DHT22;4392;47.400;8.062;2023-01-16T15:42:19;6.20;99.90
8711;DHT22;4392;47.400;8.062;2023-01-16T15:45:24;6.20;99.90
8711;DHT22;4392;47.400;8.062;2023-01-16T15:50:58;6.10;99.90
8711;DHT22;4392;47.400;8.062;2023-01-16T15:53:38;6.20;99.90
8711;DHT22;4392;47.400;8.062;2023-01-16T15:56:20;6.20;99.90
8711;DHT22;4392;47.400;8.062;2023-01-16T15:58:47;6.20;99.90
8711;DHT22;4392;47.400;8.062;2023-01-16T16:01:14;6.10;99.90
8711;DHT22;4392;47.400;8.062;2023-01-16T16:03:46;6.20;99.90
8711;DHT22;4392;47.400;8.062;2023-01-16T16:06:14;6.20;99.90
8711;DHT22;4392;47.400;8.062;2023-01-16T16:08:45;6.20;99.90
8711;DHT22;4392;47.400;8.062;2023-01-16T16:11:18;6.20;99.90
8711;DHT22;4392;47.400;8.062;2023-01-16T16:14:22;6.30;99.90
8711;DHT22;4392;47.400;8.062;2023-01-16T16:17:22;6.20;99.90
8711;DHT22;4392;47.400;8.062;2023-01-16T16:20:27;6.20;99.90
8711;DHT22;4392;47.400;8.062;2023-01-16T16:25:57;6.20;99.90
8711;DHT22;4392;47.400;8.062;2023-01-16T16:28:34;6.20;99.90
8711;DHT22;4392;47.400;8.062;2023-01-16T16:31:28;6.10;99.90
8711;DHT22;4392;47.400;8.062;2023-01-16T16:36:38;6.10;99.90
8711;DHT22;4392;47.400;8.062;2023-01-16T16:41:51;6.00;99.90
8711;DHT22;4392;47.400;8.062;2023-01-16T16:44:41;5.60;99.90
8711;DHT22;4392;47.400;8.062;2023-01-16T16:49:41;5.70;99.90
8711;DHT22;4392;47.400;8.062;2023-01-16T16:52:46;5.70;99.90
8711;DHT22;4392;47.400;8.062;2023-01-16T16:55:27;5.70;99.90
8711;DHT22;4392;47.400;8.062;2023-01-16T16:57:56;5.80;99.90
8711;DHT22;4392;47.400;8.062;2023-01-16T17:00:22;5.90;99.90
8711;DHT22;4392;47.400;8.062;2023-01-16T17:02:49;5.90;99.90
8711;DHT22;4392;47.400;8.062;2023-01-16T17:05:17;5.90;99.90
8711;DHT22;4392;47.400;8.062;2023-01-16T17:07:49;5.80;99.90
8711;DHT22;4392;47.400;8.062;2023-01-16T17:10:17;5.80;99.90
8711;DHT22;4392;47.400;8.062;2023-01-16T17:12:43;5.80;99.90
8711;DHT22;4392;47.400;8.062;2023-01-16T17:15:09;5.80;99.90
8711;DHT22;4392;47.400;8.062;2023-01-16T17:17:39;5.80;99.90
8711;DHT22;4392;47.400;8.062;2023-01-16T17:20:27;5.90;99.90
8711;DHT22;4392;47.400;8.062;2023-01-16T17:22:53;6.00;99.90
8711;DHT22;4392;47.400;8.062;2023-01-16T17:25:20;6.10;99.90
8711;DHT22;4392;47.400;8.062;2023-01-16T17:27:53;6.10;99.90
8711;DHT22;4392;47.400;8.062;2023-01-16T17:30:22;6.00;99.90
8711;DHT22;4392;47.400;8.062;2023-01-16T17:32:56;6.10;99.90
8711;DHT22;4392;47.400;8.062;2023-01-16T17:35:24;6.10;99.90
8711;DHT22;4392;47.400;8.062;2023-01-16T17:37:50;6.10;99.90
8711;DHT22;4392;47.400;8.062;2023-01-16T17:40:16;5.90;99.90
8711;DHT22;4392;47.400;8.062;2023-01-16T17:42:42;6.00;99.90
8711;DHT22;4392;47.400;8.062;2023-01-16T17:45:30;6.10;99.90
8711;DHT22;4392;47.400;8.062;2023-01-16T17:48:19;6.10;99.90
8711;DHT22;4392;47.400;8.062;2023-01-16T17:50:47;6.10;99.90
8711;DHT22;4392;47.400;8.062;2023-01-16T17:53:22;6.10;99.90
8711;DHT22;4392;47.400;8.062;2023-01-16T17:55:50;6.10;99.90
8711;DHT22;4392;47.400;8.062;2023-01-16T17:58:37;6.00;99.90
8711;DHT22;4392;47.400;8.062;2023-01-16T18:01:17;6.10;99.90
8711;DHT22;4392;47.400;8.062;2023-01-16T18:03:48;6.10;99.90
8711;DHT22;4392;47.400;8.062;2023-01-16T18:06:26;6.10;99.90
8711;DHT22;4392;47.400;8.062;2023-01-16T18:08:53;6.10;99.90
8711;DHT22;4392;47.400;8.062;2023-01-16T18:11:23;6.00;99.90
8711;DHT22;4392;47.400;8.062;2023-01-16T18:14:14;5.90;99.90
8711;DHT22;4392;47.400;8.062;2023-01-16T18:16:58;6.00;99.90
8711;DHT22;4392;47.400;8.062;2023-01-16T18:19:42;5.80;99.90
8711;DHT22;4392;47.400;8.062;2023-01-16T18:22:08;5.80;99.90
8711;DHT22;4392;47.400;8.062;2023-01-16T18:24:36;5.90;99.90
8711;DHT22;4392;47.400;8.062;2023-01-16T18:27:04;5.40;99.90
8711;DHT22;4392;47.400;8.062;2023-01-16T18:29:32;5.40;99.90
8711;DHT22;4392;47.400;8.062;2023-01-16T18:31:58;5.60;99.90
8711;DHT22;4392;47.400;8.062;2023-01-16T18:34:43;5.60;99.90
8711;DHT22;4392;47.400;8.062;2023-01-16T18:37:09;5.50;99.90
8711;DHT22;4392;47.400;8.062;2023-01-16T18:39:35;5.60;99.90
8711;DHT22;4392;47.400;8.062;2023-01-16T18:42:21;5.50;99.90
8711;DHT22;4392;47.400;8.062;2023-01-16T18:45:10;5.50;99.90
8711;DHT22;4392;47.400;8.062;2023-01-16T18:47:55;5.60;99.90
8711;DHT22;4392;47.400;8.062;2023-01-16T18:50:39;5.60;99.90
8711;DHT22;4392;47.400;8.062;2023-01-16T18:53:32;5.60;99.90
8711;DHT22;4392;47.400;8.062;2023-01-16T18:56:20;5.40;99.90
8711;DHT22;4392;47.400;8.062;2023-01-16T18:59:05;5.50;99.90
8711;DHT22;4392;47.400;8.062;2023-01-16T19:01:51;5.50;99.90
8711;DHT22;4392;47.400;8.062;2023-01-16T19:04:28;5.60;99.90
8711;DHT22;4392;47.400;8.062;2023-01-16T19:06:59;5.50;99.90
8711;DHT22;4392;47.400;8.062;2023-01-16T19:09:27;5.50;99.90
8711;DHT22;4392;47.400;8.062;2023-01-16T19:11:54;5.50;99.90
8711;DHT22;4392;47.400;8.062;2023-01-16T19:14:25;5.40;99.90
8711;DHT22;4392;47.400;8.062;2023-01-16T19:16:51;5.40;99.90
8711;DHT22;4392;47.400;8.062;2023-01-16T19:19:22;5.40;99.90
8711;DHT22;4392;47.400;8.062;2023-01-16T19:21:52;5.40;99.90
8711;DHT22;4392;47.400;8.062;2023-01-16T19:24:22;5.40;99.90
8711;DHT22;4392;47.400;8.062;2023-01-16T19:26:50;5.50;99.90
8711;DHT22;4392;47.400;8.062;2023-01-16T19:29:18;5.50;99.90
8711;DHT22;4392;47.400;8.062;2023-01-16T19:31:44;5.50;99.90
8711;DHT22;4392;47.400;8.062;2023-01-16T19:34:11;5.50;99.90
8711;DHT22;4392;47.400;8.062;2023-01-16T19:36:37;5.60;99.90
8711;DHT22;4392;47.400;8.062;2023-01-16T19:39:07;5.60;99.90
8711;DHT22;4392;47.400;8.062;2023-01-16T19:41:36;5.60;99.90
8711;DHT22;4392;47.400;8.062;2023-01-16T19:44:23;5.60;99.90
8711;DHT22;4392;47.400;8.062;2023-01-16T19:47:07;5.60;99.90
8711;DHT22;4392;47.400;8.062;2023-01-16T19:49:34;5.60;99.90
8711;DHT22;4392;47.400;8.062;2023-01-16T19:52:00;5.60;99.90